Time;durP1;ratioP1;P1;durP2;ratioP2;P2;SDS_P1;SDS_P2;PMS_P1;PMS_P2;Temp;Humidity;BMP_temperature;BMP_pressure;BME280_temperature;BME280_humidity;BME280_pressure;Samples;Min_cycle;Max_cycle;Signal;HPM_P1;HPM_P2
2021/01/03 00:01:20;;;;;;;8.77;5.38;;;;;;;2.28;62.55;98336.06;4977660;28;20046;-63
2021/01/03 00:03:46;;;;;;;7.45;5.32;;;;;;;2.31;62.15;98344.44;4976162;28;20460;-63
2021/01/03 00:06:14;;;;;;;7.28;5.15;;;;;;;2.25;62.18;98337.22;4977090;28;20125;-63
2021/01/03 00:08:41;;;;;;;7.63;5.25;;;;;;;2.21;62.29;98348.91;4977306;28;20065;-63
2021/01/03 00:11:08;;;;;;;8.52;5.53;;;;;;;2.17;62.44;98337.97;4975799;28;20141;-63
2021/01/03 00:13:35;;;;;;;8.10;5.57;;;;;;;2.09;62.63;98335.28;4976958;28;20042;-63
2021/01/03 00:16:03;;;;;;;8.20;5.88;;;;;;;2.10;62.73;98334.31;4976429;28;20066;-63
2021/01/03 00:18:31;;;;;;;8.88;5.97;;;;;;;2.10;62.78;98328.28;4977437;28;20093;-62
2021/01/03 00:20:58;;;;;;;8.05;5.40;;;;;;;2.12;62.80;98332.41;4977412;28;20497;-63
2021/01/03 00:23:24;;;;;;;11.13;5.70;;;;;;;2.07;62.82;98328.56;4976295;28;20046;-63
2021/01/03 00:25:51;;;;;;;8.35;5.85;;;;;;;2.07;62.93;98331.19;4975829;28;20051;-63
2021/01/03 00:28:17;;;;;;;8.65;5.72;;;;;;;2.04;62.96;98328.88;4976446;28;20196;-63
2021/01/03 00:30:44;;;;;;;7.88;5.55;;;;;;;2.07;62.83;98329.41;4976392;28;20065;-62
2021/01/03 00:33:11;;;;;;;8.20;5.57;;;;;;;1.93;63.27;98333.34;4976221;28;20122;-63
2021/01/03 00:35:39;;;;;;;9.15;6.15;;;;;;;1.88;63.37;98319.97;4974743;28;20105;-63
2021/01/03 00:38:10;;;;;;;8.55;5.80;;;;;;;1.94;63.51;98321.13;4976277;28;20047;-63
2021/01/03 00:40:38;;;;;;;9.73;6.43;;;;;;;1.96;63.46;98316.63;4975953;28;20058;-63
2021/01/03 00:43:05;;;;;;;10.35;6.70;;;;;;;2.07;63.56;98313.75;4976194;28;20058;-63
2021/01/03 00:45:33;;;;;;;9.27;5.63;;;;;;;2.15;63.26;98316.41;4976022;28;20042;-63
2021/01/03 00:48:00;;;;;;;9.82;6.53;;;;;;;2.10;63.23;98317.84;4975535;28;20094;-63
2021/01/03 00:50:28;;;;;;;9.88;6.30;;;;;;;2.07;63.04;98316.34;4976062;28;20050;-63
2021/01/03 00:52:55;;;;;;;8.23;5.53;;;;;;;2.04;63.24;98308.84;4975831;28;20053;-63
2021/01/03 00:55:23;;;;;;;8.82;5.78;;;;;;;2.04;63.49;98313.22;4975452;28;20043;-63
2021/01/03 00:57:49;;;;;;;11.88;6.95;;;;;;;1.92;63.79;98308.28;4975539;28;20050;-63
2021/01/03 01:00:22;;;;;;;8.95;6.25;;;;;;;1.93;63.76;98312.50;4975838;28;20046;-63
2021/01/03 01:02:49;;;;;;;9.25;6.72;;;;;;;1.94;63.77;98319.34;4975658;28;20051;-63
2021/01/03 01:05:17;;;;;;;10.05;6.57;;;;;;;1.94;63.86;98314.13;4975502;28;20039;-63
2021/01/03 01:07:44;;;;;;;8.63;6.47;;;;;;;1.91;63.71;98306.59;4975548;28;20054;-63
2021/01/03 01:10:14;;;;;;;11.38;6.43;;;;;;;1.92;63.95;98305.66;4975117;28;20047;-63
2021/01/03 01:12:41;;;;;;;10.05;7.13;;;;;;;1.97;63.84;98307.81;4975510;28;20097;-63
2021/01/03 01:15:13;;;;;;;11.80;8.20;;;;;;;2.02;63.93;98307.34;4974980;28;20563;-63
2021/01/03 01:17:40;;;;;;;9.85;6.80;;;;;;;1.99;63.36;98308.47;4975318;28;20043;-62
2021/01/03 01:20:08;;;;;;;9.90;6.95;;;;;;;1.88;63.49;98306.13;4975530;28;20122;-63
2021/01/03 01:22:35;;;;;;;10.68;7.00;;;;;;;1.84;63.63;98318.63;4975402;28;20500;-63
2021/01/03 01:25:02;;;;;;;10.13;7.38;;;;;;;1.82;63.76;98311.91;4974932;28;20097;-63
2021/01/03 01:27:29;;;;;;;9.65;7.15;;;;;;;1.78;63.73;98321.81;4973540;28;20113;-63
2021/01/03 01:29:55;;;;;;;9.95;7.60;;;;;;;1.79;64.04;98318.22;4974874;28;20046;-63
2021/01/03 01:32:22;;;;;;;9.23;6.93;;;;;;;1.77;64.07;98321.97;4975094;28;20449;-62
2021/01/03 01:34:49;;;;;;;9.40;6.90;;;;;;;1.76;64.20;98318.53;4974736;28;20050;-63
2021/01/03 01:37:16;;;;;;;12.07;7.25;;;;;;;1.71;64.11;98326.81;4975168;28;20057;-63
2021/01/03 01:39:43;;;;;;;12.32;7.93;;;;;;;1.67;64.14;98329.84;4975161;28;20501;-62
2021/01/03 01:42:09;;;;;;;9.05;7.10;;;;;;;1.67;64.41;98322.00;4974894;28;20038;-63
2021/01/03 01:44:37;;;;;;;10.95;7.32;;;;;;;1.70;64.48;98332.16;4974795;28;20105;-62
2021/01/03 01:47:10;;;;;;;11.82;7.53;;;;;;;1.69;64.38;98330.53;4973300;28;20239;-63
2021/01/03 01:49:41;;;;;;;10.52;6.75;;;;;;;1.66;64.59;98326.41;4974745;28;20039;-63
2021/01/03 01:52:10;;;;;;;10.98;6.93;;;;;;;1.69;64.85;98326.13;4975131;28;20138;-63
2021/01/03 01:54:41;;;;;;;10.30;7.85;;;;;;;1.68;64.79;98326.28;4974567;28;20050;-63
2021/01/03 01:57:16;;;;;;;11.73;7.43;;;;;;;1.71;64.82;98328.56;4973181;28;20054;-63
2021/01/03 01:59:53;;;;;;;11.02;7.38;;;;;;;1.76;64.83;98326.38;4973578;28;20101;-63
2021/01/03 02:02:27;;;;;;;12.32;7.50;;;;;;;1.70;64.71;98330.34;4974588;28;20046;-63
2021/01/03 02:05:10;;;;;;;10.13;7.05;;;;;;;1.67;64.84;98335.03;4974341;28;20042;-63
2021/01/03 02:07:46;;;;;;;12.40;8.32;;;;;;;1.64;64.91;98325.75;4974450;28;20493;-63
2021/01/03 02:10:20;;;;;;;13.50;7.65;;;;;;;1.63;64.94;98328.50;4973331;28;20038;-62
2021/01/03 02:12:48;;;;;;;;;;;;;;;1.60;65.14;98326.19;4975096;28;20558;-63
2021/01/03 02:15:18;;;;;;;10.82;7.25;;;;;;;1.59;65.31;98325.38;4972816;28;20442;-63
2021/01/03 02:17:45;;;;;;;11.27;7.78;;;;;;;1.56;65.27;98314.44;4974457;28;20082;-63
2021/01/03 02:20:14;;;;;;;12.18;8.07;;;;;;;1.58;65.37;98317.69;4972291;28;20054;-63
2021/01/03 02:22:45;;;;;;;11.30;7.75;;;;;;;1.62;65.40;98308.63;4974281;28;20046;-63
2021/01/03 02:25:14;;;;;;;13.40;7.78;;;;;;;1.65;65.29;98314.34;4973758;28;20520;-63
2021/01/03 02:27:53;;;;;;;10.13;7.18;;;;;;;1.56;65.40;98317.03;4974197;28;20059;-63
2021/01/03 02:30:21;;;;;;;11.55;8.10;;;;;;;1.61;65.63;98315.63;4974130;28;20043;-63
2021/01/03 02:33:03;;;;;;;11.25;7.82;;;;;;;1.68;65.49;98314.06;4972866;28;20050;-63
2021/01/03 02:35:30;;;;;;;9.98;7.18;;;;;;;1.59;65.31;98314.13;4974177;28;20449;-63
2021/01/03 02:37:59;;;;;;;11.70;7.85;;;;;;;1.58;65.25;98312.47;4974505;28;20054;-63
2021/01/03 02:40:27;;;;;;;11.07;7.70;;;;;;;1.49;65.34;98312.41;4974161;28;20074;-63
2021/01/03 02:42:54;;;;;;;11.80;7.68;;;;;;;1.40;65.62;98313.28;4973951;28;20046;-62
2021/01/03 02:45:24;;;;;;;9.35;7.85;;;;;;;1.43;65.99;98310.41;4972422;28;20078;-63
2021/01/03 02:47:50;;;;;;;10.35;7.35;;;;;;;1.54;65.78;98311.97;4974244;28;20090;-63
2021/01/03 02:50:23;;;;;;;8.95;7.28;;;;;;;1.57;65.44;98318.66;4973895;28;20117;-63
2021/01/03 02:52:51;;;;;;;10.55;7.45;;;;;;;1.55;65.66;98315.38;4974117;28;20051;-63
2021/01/03 02:55:19;;;;;;;11.88;8.00;;;;;;;1.54;65.85;98314.56;4973672;28;20047;-63
2021/01/03 02:57:47;;;;;;;12.25;8.15;;;;;;;1.61;65.96;98317.41;4974030;28;20452;-63
2021/01/03 03:00:20;;;;;;;12.35;8.23;;;;;;;1.64;65.68;98317.94;4974041;28;20514;-63
2021/01/03 03:02:47;;;;;;;11.15;7.70;;;;;;;1.60;65.53;98318.38;4973856;28;20053;-62
2021/01/03 03:05:14;;;;;;;11.35;8.18;;;;;;;1.53;65.86;98323.34;4972340;28;20050;-63
2021/01/03 03:07:41;;;;;;;12.02;7.57;;;;;;;1.56;65.78;98320.47;4973679;28;20501;-63
2021/01/03 03:10:09;;;;;;;13.88;8.68;;;;;;;1.55;65.96;98312.78;4972418;28;20043;-63
2021/01/03 03:12:36;;;;;;;10.80;7.70;;;;;;;1.53;65.80;98317.31;4973974;28;20050;-63
2021/01/03 03:15:06;;;;;;;9.70;7.45;;;;;;;1.54;65.96;98317.16;4973695;28;20138;-63
2021/01/03 03:17:33;;;;;;;11.40;7.93;;;;;;;1.57;65.85;98316.06;4974021;28;20043;-63
2021/01/03 03:20:00;;;;;;;10.88;8.40;;;;;;;1.43;65.98;98313.00;4973921;28;20050;-63
2021/01/03 03:22:26;;;;;;;11.65;8.25;;;;;;;1.46;66.30;98306.66;4973058;28;20058;-63
2021/01/03 03:24:53;;;;;;;11.73;8.10;;;;;;;1.52;66.19;98310.47;4973416;28;20042;-62
2021/01/03 03:27:19;;;;;;;10.52;7.55;;;;;;;1.47;66.09;98306.53;4973891;28;20110;-63
2021/01/03 03:29:46;;;;;;;11.15;8.65;;;;;;;1.45;66.16;98303.25;4973814;28;20051;-63
2021/01/03 03:32:14;;;;;;;13.43;9.32;;;;;;;1.50;66.16;98308.00;4974189;28;20050;-63
2021/01/03 03:34:40;;;;;;;10.52;7.72;;;;;;;1.44;66.16;98304.22;4977240;28;20045;-63
2021/01/03 03:37:07;;;;;;;9.93;7.60;;;;;;;1.45;66.06;98303.25;4977996;28;20046;-63
2021/01/03 03:39:34;;;;;;;11.13;8.20;;;;;;;1.40;66.26;98302.88;4977264;28;20094;-63
2021/01/03 03:42:01;;;;;;;11.90;7.38;;;;;;;1.46;66.48;98311.88;4977339;28;20053;-64
2021/01/03 03:44:29;;;;;;;11.98;8.00;;;;;;;1.55;66.21;98302.34;4977006;28;20515;-63
2021/01/03 03:46:58;;;;;;;10.70;7.97;;;;;;;1.58;66.03;98312.47;4977289;28;20551;-63
2021/01/03 03:49:25;;;;;;;9.93;7.90;;;;;;;1.45;66.16;98305.03;4977172;28;20046;-63
2021/01/03 03:51:53;;;;;;;8.07;6.97;;;;;;;1.47;66.16;98300.50;4975962;28;20066;-63
2021/01/03 03:54:20;;;;;;;9.45;6.72;;;;;;;1.47;66.27;98301.31;4976923;28;20098;-63
2021/01/03 03:56:52;;;;;;;9.25;7.45;;;;;;;1.52;66.10;98305.28;4975812;28;20054;-63
2021/01/03 03:59:18;;;;;;;9.15;7.13;;;;;;;1.46;66.11;98301.44;4977211;28;20046;-63
2021/01/03 04:01:45;;;;;;;9.15;7.35;;;;;;;1.48;66.24;98302.97;4977177;28;20098;-64
2021/01/03 04:04:12;;;;;;;10.25;7.75;;;;;;;1.47;66.00;98297.91;4975365;28;20800;-62
2021/01/03 04:06:40;;;;;;;10.27;7.50;;;;;;;1.41;66.29;98299.28;4976739;28;20054;-63
2021/01/03 04:09:08;;;;;;;11.50;7.97;;;;;;;1.48;66.18;98291.72;4976030;28;20133;-64
2021/01/03 04:11:39;;;;;;;12.00;8.60;;;;;;;1.51;66.10;98285.38;4977183;28;20428;-63
2021/01/03 04:14:05;;;;;;;9.95;7.65;;;;;;;1.45;66.28;98300.63;4975590;28;20069;-63
2021/01/03 04:16:32;;;;;;;10.15;8.07;;;;;;;1.48;66.31;98292.53;4977092;28;20058;-63
2021/01/03 04:18:59;;;;;;;9.30;7.35;;;;;;;1.46;66.19;98302.28;4976945;28;20039;-62
2021/01/03 04:21:26;;;;;;;12.05;7.97;;;;;;;1.45;66.56;98292.81;4976900;28;20134;-63
2021/01/03 04:23:53;;;;;;;9.77;7.47;;;;;;;1.45;66.29;98295.44;4976770;28;20416;-63
2021/01/03 04:26:21;;;;;;;10.10;8.38;;;;;;;1.54;66.16;98296.31;4976461;28;20078;-63
2021/01/03 04:28:49;;;;;;;10.40;7.47;;;;;;;1.55;65.81;98291.94;4976364;28;20049;-63
2021/01/03 04:31:18;;;;;;;10.55;7.75;;;;;;;1.56;65.98;98302.22;4976717;28;20436;-63
2021/01/03 04:33:45;;;;;;;10.18;7.28;;;;;;;1.61;66.08;98294.78;4976492;28;20063;-63
2021/01/03 04:36:13;;;;;;;8.43;7.20;;;;;;;1.60;65.36;98293.16;4976152;28;20082;-63
2021/01/03 04:38:40;;;;;;;10.50;7.50;;;;;;;1.62;65.46;98293.00;4976690;28;20046;-63
2021/01/03 04:41:11;;;;;;;11.15;7.88;;;;;;;1.58;65.67;98289.03;4976684;28;20042;-63
2021/01/03 04:43:38;;;;;;;10.18;7.85;;;;;;;1.64;65.95;98286.66;4976027;28;20050;-63
2021/01/03 04:46:09;;;;;;;9.95;7.57;;;;;;;1.54;65.78;98288.50;4975015;28;20070;-63
2021/01/03 04:48:38;;;;;;;10.05;7.80;;;;;;;1.57;65.77;98288.22;4976545;28;20109;-63
2021/01/03 04:51:28;;;;;;;9.50;7.88;;;;;;;1.64;65.61;98291.06;4977007;28;20069;-63
2021/01/03 04:53:57;;;;;;;10.35;7.53;;;;;;;1.67;65.73;98285.53;4976758;28;20055;-62
2021/01/03 04:56:34;;;;;;;9.60;8.00;;;;;;;1.76;65.61;98283.84;4975945;28;20046;-63
2021/01/03 04:59:15;;;;;;;11.02;8.30;;;;;;;1.72;65.62;98278.94;4976287;28;20043;-64
2021/01/03 05:02:17;;;;;;;10.15;7.68;;;;;;;1.82;65.72;98285.84;4976091;28;20050;-62
2021/01/03 05:04:53;;;;;;;11.15;7.70;;;;;;;1.88;65.43;98280.88;4975418;28;20046;-62
2021/01/03 05:07:26;;;;;;;10.43;8.10;;;;;;;1.81;65.39;98281.59;4975317;28;20061;-62
2021/01/03 05:10:00;;;;;;;10.75;7.95;;;;;;;1.86;65.25;98289.78;4975181;28;20062;-63
2021/01/03 05:12:35;;;;;;;9.73;7.85;;;;;;;1.70;65.45;98285.25;4974297;28;20106;-63
2021/01/03 05:15:09;;;;;;;8.95;7.53;;;;;;;1.58;65.73;98281.22;4973738;28;20469;-62
2021/01/03 05:17:36;;;;;;;8.07;6.25;;;;;;;1.68;65.75;98285.41;4975794;28;20100;-63
2021/01/03 05:20:04;;;;;;;8.85;7.45;;;;;;;1.72;65.63;98285.94;4974842;28;20468;-64
2021/01/03 05:22:33;;;;;;;10.18;7.97;;;;;;;1.79;65.44;98286.94;4976299;28;20496;-64
2021/01/03 05:25:01;;;;;;;10.05;7.85;;;;;;;1.85;65.68;98285.56;4974389;28;20509;-63
2021/01/03 05:27:30;;;;;;;8.98;7.80;;;;;;;1.89;65.49;98276.47;4976358;28;20049;-63
2021/01/03 05:30:13;;;;;;;8.48;7.15;;;;;;;1.85;65.32;98283.75;4976141;28;20051;-63
2021/01/03 05:32:40;;;;;;;9.40;7.53;;;;;;;1.91;65.33;98277.94;4975098;28;20058;-63
2021/01/03 05:35:18;;;;;;;11.30;8.00;;;;;;;1.81;65.53;98285.03;4975935;28;20039;-63
2021/01/03 05:37:46;;;;;;;10.57;8.77;;;;;;;1.79;65.65;98286.13;4974939;28;20100;-63
2021/01/03 05:40:24;;;;;;;10.85;8.68;;;;;;;1.86;65.34;98280.19;4975305;28;20097;-62
2021/01/03 05:43:07;;;;;;;10.27;8.35;;;;;;;1.84;65.42;98287.34;4973779;28;20393;-63
2021/01/03 05:45:34;;;;;;;10.43;8.10;;;;;;;1.79;65.48;98280.91;4974419;28;20058;-63
2021/01/03 05:48:04;;;;;;;10.98;7.63;;;;;;;1.81;65.51;98281.59;4974656;28;20097;-62
2021/01/03 05:50:33;;;;;;;12.75;8.63;;;;;;;1.92;65.77;98282.19;4974814;28;20039;-62
2021/01/03 05:53:07;;;;;;;11.38;8.90;;;;;;;2.04;65.55;98279.34;4974385;28;20093;-63
2021/01/03 05:55:35;;;;;;;13.00;8.95;;;;;;;2.05;65.31;98281.00;4973604;28;20074;-63
2021/01/03 05:58:06;;;;;;;12.00;8.93;;;;;;;1.99;65.40;98274.56;4974458;28;20051;-63
2021/01/03 06:00:33;;;;;;;13.23;8.25;;;;;;;2.01;65.40;98279.66;4974484;28;20105;-62
2021/01/03 06:03:15;;;;;;;12.18;8.55;;;;;;;2.02;65.57;98274.28;4974623;28;20061;-62
2021/01/03 06:05:44;;;;;;;11.18;8.32;;;;;;;2.15;65.72;98277.31;4974203;28;20505;-63
2021/01/03 06:08:17;;;;;;;11.48;8.77;;;;;;;2.22;65.55;98275.75;4973123;28;20049;-63
2021/01/03 06:10:44;;;;;;;11.90;8.82;;;;;;;2.20;65.33;98277.69;4974318;28;20489;-63
2021/01/03 06:13:13;;;;;;;10.80;8.55;;;;;;;2.11;65.24;98275.97;4974593;28;20186;-63
2021/01/03 06:15:44;;;;;;;14.32;10.15;;;;;;;2.10;65.37;98278.75;4972764;28;20117;-63
2021/01/03 06:18:16;;;;;;;13.40;9.60;;;;;;;2.11;65.71;98275.97;4974505;28;20053;-63
2021/01/03 06:20:43;;;;;;;14.68;10.35;;;;;;;2.11;65.61;98281.19;4974521;28;20049;-63
2021/01/03 06:23:12;;;;;;;12.30;9.60;;;;;;;2.06;65.67;98283.44;4973016;28;20464;-62
2021/01/03 06:25:44;;;;;;;13.05;9.48;;;;;;;2.01;65.64;98280.47;4973801;28;20127;-63
2021/01/03 06:28:22;;;;;;;11.23;9.50;;;;;;;1.95;65.84;98284.47;4974250;28;20062;-63
2021/01/03 06:31:04;;;;;;;14.98;10.05;;;;;;;1.72;66.39;98288.53;4974167;28;20047;-63
2021/01/03 06:33:58;;;;;;;14.27;10.50;;;;;;;1.73;66.65;98282.34;4974138;28;20051;-63
2021/01/03 06:36:32;;;;;;;13.80;9.43;;;;;;;1.81;66.63;98287.63;4972343;28;20055;-63
2021/01/03 06:39:21;;;;;;;12.77;9.85;;;;;;;1.83;66.48;98288.28;4974052;28;20065;-63
2021/01/03 06:41:51;;;;;;;12.82;9.77;;;;;;;1.83;66.30;98282.25;4974238;28;20058;-63
2021/01/03 06:44:56;;;;;;;13.30;10.00;;;;;;;1.70;66.63;98282.63;4973535;28;20050;-63
2021/01/03 06:47:50;;;;;;;13.77;10.10;;;;;;;1.63;66.91;98285.03;4966860;28;20055;-63
2021/01/03 06:50:36;;;;;;;15.68;11.15;;;;;;;1.76;66.71;98284.66;4972811;28;20051;-62
2021/01/03 06:53:32;;;;;;;12.75;9.60;;;;;;;1.81;66.77;98292.03;4974394;28;20047;-62
2021/01/03 06:56:30;;;;;;;16.08;10.73;;;;;;;1.91;66.36;98283.16;4973650;28;20047;-63
2021/01/03 06:59:14;;;;;;;13.82;10.27;;;;;;;1.80;66.37;98287.78;4931168;28;20054;-64
2021/01/03 07:01:42;;;;;;;14.98;11.10;;;;;;;1.68;66.64;98287.19;4974182;28;20069;-63
2021/01/03 07:04:13;;;;;;;13.98;10.15;;;;;;;1.69;66.67;98294.03;4973899;28;20050;-63
2021/01/03 07:06:41;;;;;;;15.25;11.15;;;;;;;1.78;66.66;98289.72;4974682;28;20163;-63
2021/01/03 07:09:10;;;;;;;14.27;11.45;;;;;;;1.88;66.77;98296.50;4977668;28;20062;-62
2021/01/03 07:11:44;;;;;;;12.00;9.68;;;;;;;1.79;66.33;98294.78;4977713;28;20424;-61
2021/01/03 07:14:33;;;;;;;13.82;10.65;;;;;;;1.77;66.33;98283.69;4977697;28;20051;-61
2021/01/03 07:17:02;;;;;;;14.85;10.07;;;;;;;1.76;66.47;98289.06;4977534;28;20046;-61
2021/01/03 07:19:39;;;;;;;14.65;10.90;;;;;;;1.76;66.53;98287.28;4978241;28;20106;-62
2021/01/03 07:22:13;;;;;;;15.00;11.85;;;;;;;1.78;66.74;98285.31;4977907;28;20129;-62
2021/01/03 07:25:06;;;;;;;13.75;10.95;;;;;;;1.79;66.68;98286.94;4977178;28;20050;-61
2021/01/03 07:27:36;;;;;;;15.05;11.48;;;;;;;1.78;66.72;98290.53;4977314;28;20050;-62
2021/01/03 07:30:42;;;;;;;15.52;11.43;;;;;;;1.75;66.92;98283.00;4977221;28;20039;-62
2021/01/03 07:33:33;;;;;;;15.35;12.07;;;;;;;1.83;67.01;98285.69;4975866;28;20058;-63
2021/01/03 07:36:15;;;;;;;16.80;12.48;;;;;;;1.91;66.70;98287.53;4964419;28;20066;-63
2021/01/03 07:38:42;;;;;;;15.57;12.07;;;;;;;1.97;66.61;98287.78;4976719;28;20039;-62
2021/01/03 07:41:09;;;;;;;15.45;11.05;;;;;;;1.99;66.56;98285.81;4979217;28;20047;-62
2021/01/03 07:43:57;;;;;;;15.57;12.02;;;;;;;1.94;66.61;98282.03;4977194;28;20047;-63
2021/01/03 07:46:40;;;;;;;16.52;11.68;;;;;;;1.96;66.71;98293.16;4975913;28;20050;-62
2021/01/03 07:52:01;;;;;;;15.50;10.85;;;;;;;1.96;66.36;98296.56;5117831;27;20731;-63
2021/01/03 07:54:29;;;;;;;14.32;9.82;;;;;;;1.79;66.72;98293.94;5116574;28;20089;-63
2021/01/03 07:56:55;;;;;;;15.23;11.10;;;;;;;1.69;67.16;98288.81;5116031;28;20040;-63
2021/01/03 07:59:22;;;;;;;13.43;10.80;;;;;;;1.70;67.27;98295.66;5112875;28;20093;-63
2021/01/03 08:01:51;;;;;;;15.80;11.65;;;;;;;1.71;67.08;98292.94;5111317;28;20093;-63
2021/01/03 08:04:23;;;;;;;14.07;10.27;;;;;;;1.73;67.28;98296.19;5110684;28;20048;-63
2021/01/03 08:06:51;;;;;;;11.88;10.40;;;;;;;1.77;67.15;98301.13;5112080;28;20100;-63
2021/01/03 08:09:27;;;;;;;15.32;11.55;;;;;;;1.84;67.04;98295.16;5110583;28;20043;-63
2021/01/03 08:12:08;;;;;;;17.27;11.77;;;;;;;1.83;67.34;98297.91;5110909;28;20047;-63
2021/01/03 08:14:40;;;;;;;16.33;12.02;;;;;;;2.01;67.26;98288.28;5110776;28;20044;-63
2021/01/03 08:17:07;;;;;;;13.68;10.70;;;;;;;1.91;66.89;98292.75;5110673;28;20054;-63
2021/01/03 08:19:40;;;;;;;15.13;9.77;;;;;;;1.85;67.13;98293.38;5110839;28;20436;-63
2021/01/03 08:22:07;;;;;;;15.60;10.88;;;;;;;1.86;67.40;98297.59;5109436;28;20043;-63
2021/01/03 08:24:35;;;;;;;14.30;10.95;;;;;;;1.93;67.18;98296.88;5110138;28;20044;-63
2021/01/03 08:27:11;;;;;;;12.02;10.07;;;;;;;1.89;67.19;98303.34;5110894;28;20130;-63
2021/01/03 08:29:42;;;;;;;13.70;10.95;;;;;;;2.05;67.31;98300.06;5110498;28;20059;-63
2021/01/03 08:32:13;;;;;;;13.70;9.80;;;;;;;2.00;67.07;98299.69;5110385;28;20089;-63
2021/01/03 08:34:42;;;;;;;13.25;9.75;;;;;;;1.97;66.52;98303.41;5109085;28;20043;-63
2021/01/03 08:37:14;;;;;;;14.13;10.90;;;;;;;1.93;66.86;98304.69;5110229;28;20484;-63
2021/01/03 08:39:42;;;;;;;13.75;10.32;;;;;;;1.94;67.19;98305.50;5110433;28;20048;-63
2021/01/03 08:42:15;;;;;;;12.30;9.82;;;;;;;1.96;67.14;98307.00;5109903;28;20051;-64
2021/01/03 08:44:49;;;;;;;15.35;10.50;;;;;;;1.84;67.40;98309.97;5110095;28;20044;-63
2021/01/03 08:47:20;;;;;;;13.05;10.00;;;;;;;1.83;67.69;98308.31;5111106;28;20428;-63
2021/01/03 08:49:47;;;;;;;17.15;12.40;;;;;;;2.00;67.59;98312.72;5108911;28;20047;-63
2021/01/03 08:52:18;;;;;;;14.73;11.38;;;;;;;2.16;67.28;98312.03;5108650;28;20445;-63
2021/01/03 08:54:48;;;;;;;12.23;9.27;;;;;;;2.20;66.80;98316.81;5109842;28;20052;-63
2021/01/03 08:57:15;;;;;;;16.10;11.27;;;;;;;2.15;66.75;98320.81;5110198;28;20490;-63
2021/01/03 08:59:44;;;;;;;14.43;10.98;;;;;;;2.17;66.92;98326.72;5109933;28;20050;-63
2021/01/03 09:02:22;;;;;;;13.98;10.30;;;;;;;2.23;67.17;98324.31;5101771;28;20036;-63
2021/01/03 09:04:53;;;;;;;15.98;11.75;;;;;;;2.21;67.00;98320.25;5096086;28;20048;-63
2021/01/03 09:07:20;;;;;;;13.65;10.43;;;;;;;2.06;67.14;98325.16;5096459;28;20097;-63
2021/01/03 09:09:49;;;;;;;13.57;10.50;;;;;;;2.10;67.42;98325.69;5095986;28;20082;-63
2021/01/03 09:12:33;;;;;;;18.02;12.60;;;;;;;2.25;67.32;98318.16;5096225;28;20540;-63
2021/01/03 09:15:05;;;;;;;14.07;10.50;;;;;;;2.41;67.04;98319.09;5094114;28;20056;-63
2021/01/03 09:17:38;;;;;;;13.68;9.88;;;;;;;2.37;66.40;98325.56;5095988;28;20051;-64
2021/01/03 09:20:13;;;;;;;14.80;10.48;;;;;;;2.17;66.89;98324.94;5095824;28;20046;-62
2021/01/03 09:22:45;;;;;;;14.50;10.15;;;;;;;2.18;67.35;98326.56;5094990;28;20101;-63
2021/01/03 09:25:20;;;;;;;17.92;11.57;;;;;;;2.40;66.86;98333.06;5095506;28;20044;-63
2021/01/03 09:27:53;;;;;;;14.57;10.07;;;;;;;2.47;66.74;98328.91;5095585;28;20044;-63
2021/01/03 09:30:29;;;;;;;12.82;10.27;;;;;;;2.51;66.62;98339.03;5094092;28;20516;-63
2021/01/03 09:33:08;;;;;;;12.90;9.75;;;;;;;2.40;66.58;98337.47;5095693;28;20099;-63
2021/01/03 09:35:53;;;;;;;14.32;10.82;;;;;;;2.33;67.03;98332.06;5095468;28;20398;-63
2021/01/03 09:38:51;;;;;;;13.48;9.88;;;;;;;2.22;67.11;98329.69;5096506;28;20070;-65
2021/01/03 09:41:32;;;;;;;15.95;11.57;;;;;;;2.23;67.69;98339.16;5096408;28;20048;-63
2021/01/03 09:44:09;;;;;;;14.57;10.35;;;;;;;2.17;67.69;98344.97;5095656;28;20612;-63
2021/01/03 09:46:41;;;;;;;19.95;13.23;;;;;;;2.21;67.97;98349.75;5094272;28;20090;-63
2021/01/03 09:49:14;;;;;;;13.43;10.27;;;;;;;2.17;68.10;98351.00;5095540;28;20048;-63
2021/01/03 09:51:53;;;;;;;9.73;7.90;;;;;;;2.25;68.04;98358.09;5093956;28;20051;-63
2021/01/03 09:54:24;;;;;;;11.70;9.25;;;;;;;2.22;67.83;98353.16;5095254;28;20040;-63
2021/01/03 09:56:52;;;;;;;14.98;10.85;;;;;;;2.14;68.60;98350.50;5095253;28;20212;-63
2021/01/03 09:59:21;;;;;;;14.93;11.60;;;;;;;2.21;68.99;98357.56;5095263;28;20044;-64
2021/01/03 10:01:50;;;;;;;13.50;10.75;;;;;;;2.18;68.90;98347.41;5095519;28;20043;-63
2021/01/03 10:04:21;;;;;;;13.68;11.02;;;;;;;2.17;69.26;98356.22;5094659;28;20105;-63
2021/01/03 10:06:51;;;;;;;12.57;10.05;;;;;;;2.17;69.56;98358.03;5093750;28;20051;-63
2021/01/03 10:09:30;;;;;;;17.42;11.98;;;;;;;2.29;69.82;98356.00;5095315;28;20044;-63
2021/01/03 10:11:58;;;;;;;14.13;11.00;;;;;;;2.31;69.49;98365.28;5095194;28;20090;-63
2021/01/03 10:14:31;;;;;;;15.98;11.35;;;;;;;2.38;69.46;98355.09;5092687;28;20048;-63
2021/01/03 10:17:16;;;;;;;16.23;11.85;;;;;;;2.30;70.02;98365.47;5095020;28;20040;-64
2021/01/03 10:19:42;;;;;;;17.65;12.48;;;;;;;2.37;70.16;98356.06;5094900;28;20058;-63
2021/01/03 10:22:25;;;;;;;15.35;10.75;;;;;;;2.31;70.22;98346.22;5094550;28;20036;-63
2021/01/03 10:24:55;;;;;;;14.13;10.38;;;;;;;2.31;70.20;98360.06;5092221;28;20094;-63
2021/01/03 10:27:22;;;;;;;15.80;10.32;;;;;;;2.19;70.53;98358.66;5094165;28;20051;-63
2021/01/03 10:29:49;;;;;;;21.08;15.27;;;;;;;2.27;70.68;98360.53;5093261;28;20446;-63
2021/01/03 10:32:16;;;;;;;14.23;10.88;;;;;;;2.35;70.69;98353.59;5094600;28;20032;-63
2021/01/03 10:34:43;;;;;;;17.90;12.32;;;;;;;2.46;70.60;98358.56;5093739;28;20079;-63
2021/01/03 10:37:09;;;;;;;13.32;11.27;;;;;;;2.56;70.48;98358.47;5093989;28;20040;-63
2021/01/03 10:39:36;;;;;;;14.43;10.63;;;;;;;2.57;70.34;98357.53;5093814;28;20047;-63
2021/01/03 10:42:05;;;;;;;15.68;11.15;;;;;;;2.68;70.57;98352.03;5093558;28;20048;-63
2021/01/03 10:44:33;;;;;;;14.73;10.02;;;;;;;2.78;70.17;98354.56;5093377;28;20059;-63
2021/01/03 10:47:00;;;;;;;12.77;10.05;;;;;;;2.74;70.26;98350.63;5093560;28;20048;-63
2021/01/03 10:49:27;;;;;;;12.73;10.48;;;;;;;2.84;70.31;98355.72;5092305;28;20677;-63
2021/01/03 10:51:53;;;;;;;15.73;11.50;;;;;;;2.81;70.30;98349.00;5093818;28;20048;-63
2021/01/03 10:54:22;;;;;;;15.15;11.20;;;;;;;2.77;69.94;98342.44;5093284;28;20036;-63
2021/01/03 10:57:04;;;;;;;13.25;10.70;;;;;;;2.82;70.54;98350.66;5093347;28;20048;-63
2021/01/03 10:59:31;;;;;;;12.23;9.90;;;;;;;2.79;70.15;98339.69;5093641;28;20508;-63
2021/01/03 11:01:59;;;;;;;12.18;10.07;;;;;;;2.53;70.27;98344.91;5093451;28;20097;-63
2021/01/03 11:04:25;;;;;;;12.75;10.15;;;;;;;2.61;70.80;98339.75;5092933;28;20459;-62
2021/01/03 11:06:56;;;;;;;12.25;9.68;;;;;;;2.52;70.74;98340.66;5093135;28;20391;-62
2021/01/03 11:09:25;;;;;;;14.20;10.60;;;;;;;2.62;70.91;98336.19;5093401;28;20093;-62
2021/01/03 11:11:57;;;;;;;15.60;10.90;;;;;;;2.74;70.97;98334.94;5092121;28;20527;-61
2021/01/03 11:14:23;;;;;;;12.82;10.30;;;;;;;2.68;70.82;98332.94;5093065;28;20052;-62
2021/01/03 11:16:50;;;;;;;14.55;10.80;;;;;;;2.72;70.79;98331.66;5091954;28;20044;-63
2021/01/03 11:19:18;;;;;;;12.20;9.40;;;;;;;2.79;70.70;98327.47;5093625;28;20044;-64
2021/01/03 11:21:44;;;;;;;13.00;10.05;;;;;;;2.81;70.45;98328.13;5092142;28;20093;-63
2021/01/03 11:24:13;;;;;;;14.13;10.75;;;;;;;2.89;70.71;98324.72;5093494;28;20052;-63
2021/01/03 11:26:42;;;;;;;12.82;9.75;;;;;;;2.90;70.58;98326.41;5093155;28;20558;-63
2021/01/03 11:29:13;;;;;;;13.50;10.20;;;;;;;2.99;70.55;98328.06;5093394;28;20059;-63
2021/01/03 11:31:42;;;;;;;15.82;11.63;;;;;;;3.09;70.76;98325.31;5092108;28;20052;-63
2021/01/03 11:34:11;;;;;;;15.52;12.60;;;;;;;3.14;70.56;98316.06;5093200;28;20051;-63
2021/01/03 11:36:43;;;;;;;18.55;12.52;;;;;;;3.11;70.41;98326.00;5093141;28;20044;-63
2021/01/03 11:39:10;;;;;;;15.52;11.23;;;;;;;3.07;70.19;98314.22;5093520;28;20444;-63
2021/01/03 11:41:36;;;;;;;12.98;10.80;;;;;;;3.02;70.75;98313.84;5092779;28;20040;-64
2021/01/03 11:44:05;;;;;;;15.85;11.38;;;;;;;3.05;70.84;98308.31;5091499;28;20052;-63
2021/01/03 11:46:32;;;;;;;15.55;11.65;;;;;;;2.97;70.86;98309.09;5092430;28;20486;-65
2021/01/03 11:48:59;;;;;;;12.52;11.07;;;;;;;3.02;71.05;98308.63;5093355;28;20044;-63
2021/01/03 11:51:26;;;;;;;15.18;11.68;;;;;;;2.93;71.04;98308.59;5093389;28;20040;-62
2021/01/03 11:53:54;;;;;;;15.05;12.00;;;;;;;2.94;71.16;98299.81;5093116;28;20055;-63